createdAt,value
2017-09-16T00:01:57.376Z,4.80
2017-09-16T00:04:25.735Z,5.40
2017-09-16T00:06:54.917Z,5.05
2017-09-16T00:12:03.784Z,4.45
2017-09-16T00:14:32.111Z,5.10
2017-09-16T00:17:01.225Z,4.70
2017-09-16T00:19:29.891Z,5.25
2017-09-16T00:21:58.944Z,4.75
2017-09-16T00:24:27.255Z,4.95
2017-09-16T00:26:56.372Z,5.35
2017-09-16T00:29:24.782Z,5.28
2017-09-16T00:31:53.076Z,5.40
2017-09-16T00:34:21.380Z,5.03
2017-09-16T00:36:50.443Z,5.40
2017-09-16T00:39:18.849Z,5.10
2017-09-16T00:41:47.998Z,4.80
2017-09-16T00:44:16.705Z,5.25
2017-09-16T00:46:45.037Z,5.07
2017-09-16T00:49:13.310Z,5.43
2017-09-16T00:51:41.660Z,5.20
2017-09-16T00:54:10.752Z,5.35
2017-09-16T00:56:39.885Z,5.40
2017-09-16T00:59:08.225Z,5.35
2017-09-16T01:01:37.246Z,5.30
2017-09-16T01:04:05.499Z,5.80
2017-09-16T01:06:34.612Z,5.47
2017-09-16T01:09:02.871Z,5.53
2017-09-16T01:11:31.957Z,5.45
2017-09-16T01:14:01.057Z,6.12
2017-09-16T01:16:30.394Z,5.00
2017-09-16T01:18:58.644Z,5.70
2017-09-16T01:21:26.884Z,5.68
2017-09-16T01:23:56.958Z,4.82
2017-09-16T01:26:26.221Z,5.90
2017-09-16T01:28:55.304Z,5.68
2017-09-16T01:31:25.694Z,4.95
2017-09-16T01:33:53.959Z,5.35
2017-09-16T01:36:22.166Z,5.62
2017-09-16T01:38:50.447Z,5.50
2017-09-16T01:41:20.420Z,4.70
2017-09-16T01:43:48.905Z,5.20
2017-09-16T01:46:18.330Z,5.43
2017-09-16T01:48:47.526Z,5.60
2017-09-16T01:51:15.749Z,6.07
2017-09-16T01:53:44.044Z,5.55
2017-09-16T01:56:12.255Z,5.95
2017-09-16T01:58:41.838Z,6.40
2017-09-16T02:01:10.882Z,5.78
2017-09-16T02:03:40.046Z,5.28
2017-09-16T02:06:08.467Z,5.95
2017-09-16T02:08:37.299Z,6.00
2017-09-16T02:11:06.465Z,6.43
2017-09-16T02:13:35.599Z,5.70
2017-09-16T02:16:03.904Z,5.80
2017-09-16T02:18:32.166Z,5.90
2017-09-16T02:21:00.438Z,6.20
2017-09-16T02:23:30.649Z,6.03
2017-09-16T02:25:58.925Z,5.97
2017-09-16T02:28:28.058Z,5.80
2017-09-16T02:30:57.864Z,6.15
2017-09-16T02:33:27.008Z,6.30
2017-09-16T02:35:55.363Z,6.40
2017-09-16T02:38:23.653Z,6.47
2017-09-16T02:40:52.024Z,6.57
2017-09-16T02:43:20.351Z,5.82
2017-09-16T02:45:49.432Z,6.18
2017-09-16T02:48:18.099Z,7.30
2017-09-16T02:50:46.396Z,6.05
2017-09-16T02:53:15.424Z,5.70
2017-09-16T02:55:43.687Z,6.05
2017-09-16T02:58:12.089Z,6.65
2017-09-16T03:00:40.416Z,6.70
2017-09-16T03:03:09.479Z,6.50
2017-09-16T03:05:38.233Z,7.22
2017-09-16T03:08:06.652Z,7.25
2017-09-16T03:10:34.996Z,6.65
2017-09-16T03:13:03.782Z,6.30
2017-09-16T03:15:32.188Z,6.03
2017-09-16T03:18:00.532Z,6.22
2017-09-16T03:20:28.908Z,6.70
2017-09-16T03:22:57.244Z,8.13
2017-09-16T03:25:25.561Z,6.87
2017-09-16T03:27:53.946Z,6.70
2017-09-16T03:30:23.300Z,7.32
2017-09-16T03:32:51.672Z,7.07
2017-09-16T03:35:19.929Z,7.40
2017-09-16T03:37:48.610Z,8.10
2017-09-16T03:40:17.894Z,7.03
2017-09-16T03:42:46.324Z,6.78
2017-09-16T03:45:16.305Z,6.78
2017-09-16T03:47:45.450Z,6.65
2017-09-16T03:50:14.880Z,6.90
2017-09-16T03:52:43.171Z,6.68
2017-09-16T03:57:46.924Z,6.97
2017-09-16T04:00:15.310Z,6.35
2017-09-16T04:02:49.470Z,7.45
2017-09-16T04:05:19.008Z,7.35
2017-09-16T04:07:47.344Z,7.18
2017-09-16T04:10:15.677Z,7.15
2017-09-16T04:12:44.872Z,5.65
2017-09-16T04:15:14.169Z,7.30
2017-09-16T04:17:42.430Z,6.80
2017-09-16T04:20:10.763Z,6.78
2017-09-16T04:22:39.939Z,7.37
2017-09-16T04:25:08.984Z,7.00
2017-09-16T04:27:37.404Z,6.97
2017-09-16T04:30:06.467Z,6.95
2017-09-16T04:32:38.186Z,6.93
2017-09-16T04:35:06.866Z,7.53
2017-09-16T04:37:36.154Z,7.53
2017-09-16T04:40:05.256Z,7.95
2017-09-16T04:45:08.153Z,7.03
2017-09-16T04:47:36.444Z,7.37
2017-09-16T04:50:04.844Z,7.45
2017-09-16T04:52:33.185Z,7.28
2017-09-16T04:55:01.426Z,7.43
2017-09-16T04:57:30.316Z,7.90
2017-09-16T04:59:59.483Z,7.45
2017-09-16T05:02:27.946Z,7.95
2017-09-16T05:04:56.296Z,7.35
2017-09-16T05:07:25.521Z,7.12
2017-09-16T05:09:56.813Z,9.05
2017-09-16T05:12:25.161Z,6.90
2017-09-16T05:14:54.167Z,7.55
2017-09-16T05:17:23.047Z,9.20
2017-09-16T05:19:51.410Z,8.65
2017-09-16T05:22:20.652Z,8.48
2017-09-16T05:24:48.961Z,8.55
2017-09-16T05:27:17.282Z,7.78
2017-09-16T05:29:46.797Z,6.80
2017-09-16T05:32:15.070Z,7.05
2017-09-16T05:34:43.949Z,7.40
2017-09-16T05:37:15.339Z,8.77
2017-09-16T05:39:44.754Z,7.50
2017-09-16T05:42:13.036Z,8.13
2017-09-16T05:44:41.488Z,7.00
2017-09-16T05:47:10.509Z,6.75
2017-09-16T05:49:42.308Z,7.37
2017-09-16T05:52:10.613Z,8.15
2017-09-16T05:54:42.030Z,6.32
2017-09-16T05:57:11.460Z,6.40
2017-09-16T05:59:41.542Z,8.05
2017-09-16T06:02:11.122Z,8.73
2017-09-16T06:04:39.486Z,8.70
2017-09-16T06:07:16.101Z,7.12
2017-09-16T06:09:46.420Z,8.10
2017-09-16T06:12:15.139Z,7.65
2017-09-16T06:17:20.258Z,8.05
2017-09-16T06:19:48.894Z,9.25
2017-09-16T06:22:18.184Z,8.20
2017-09-16T06:24:49.149Z,7.20
2017-09-16T06:27:18.360Z,8.50
2017-09-16T06:29:46.658Z,7.10
2017-09-16T06:32:14.927Z,9.82
2017-09-16T06:34:43.150Z,8.57
2017-09-16T06:37:12.203Z,8.10
2017-09-16T06:39:40.791Z,9.20
2017-09-16T06:42:09.181Z,9.50
2017-09-16T06:44:37.965Z,9.00
2017-09-16T06:47:07.093Z,9.15
2017-09-16T06:49:35.367Z,9.13
2017-09-16T06:52:04.507Z,9.02
2017-09-16T06:54:32.767Z,10.07
2017-09-16T06:57:01.029Z,9.98
2017-09-16T06:59:29.330Z,9.18
2017-09-16T07:01:57.579Z,9.68
2017-09-16T07:04:25.871Z,9.48
2017-09-16T07:06:54.174Z,10.00
2017-09-16T07:09:23.472Z,10.05
2017-09-16T07:14:31.587Z,10.95
2017-09-16T07:17:03.699Z,9.75
2017-09-16T07:19:32.994Z,9.90
2017-09-16T07:22:03.157Z,10.18
2017-09-16T07:24:32.262Z,9.73
2017-09-16T07:27:00.750Z,9.45
2017-09-16T07:29:28.982Z,10.20
2017-09-16T07:31:57.584Z,10.10
2017-09-16T07:34:26.706Z,11.10
2017-09-16T07:36:57.013Z,9.52
2017-09-16T07:39:25.510Z,10.20
2017-09-16T07:41:54.866Z,10.23
2017-09-16T07:44:23.224Z,11.52
2017-09-16T07:46:53.139Z,11.12
2017-09-16T07:49:21.863Z,10.55
2017-09-16T07:51:51.059Z,9.55
2017-09-16T07:54:20.380Z,10.45
2017-09-16T07:56:48.709Z,10.57
2017-09-16T07:59:19.588Z,9.27
2017-09-16T08:01:48.426Z,9.52
2017-09-16T08:04:17.281Z,8.77
2017-09-16T08:06:45.561Z,9.27
2017-09-16T08:09:13.848Z,9.13
2017-09-16T08:11:42.969Z,8.38
2017-09-16T08:16:57.800Z,8.85
2017-09-16T08:19:26.108Z,9.18
2017-09-16T08:22:08.586Z,10.10
2017-09-16T08:24:38.260Z,8.52
2017-09-16T08:27:07.563Z,9.48
2017-09-16T08:29:35.894Z,8.55
2017-09-16T08:32:04.991Z,8.80
2017-09-16T08:34:33.963Z,8.98
2017-09-16T08:37:04.230Z,9.10
2017-09-16T08:39:32.550Z,9.35
2017-09-16T08:42:01.109Z,8.73
2017-09-16T08:44:30.394Z,8.52
2017-09-16T08:47:02.226Z,7.50
2017-09-16T08:49:32.675Z,7.60
2017-09-16T08:52:01.911Z,7.18
2017-09-16T10:34:31.638Z,6.45
2017-09-16T10:37:18.703Z,7.35
2017-09-16T10:39:52.976Z,5.68
2017-09-16T10:42:25.505Z,6.32
2017-09-16T10:44:53.966Z,6.20
2017-09-16T10:47:24.667Z,7.10
2017-09-16T10:49:56.282Z,6.82
2017-09-16T10:52:57.450Z,6.70
2017-09-16T10:55:33.947Z,6.47
2017-09-16T10:58:04.670Z,7.18
2017-09-16T11:00:35.293Z,6.47
2017-09-16T11:03:07.358Z,6.25
2017-09-16T11:05:51.658Z,7.03
2017-09-16T11:08:24.009Z,6.45
2017-09-16T11:11:04.416Z,6.93
2017-09-16T11:22:22.797Z,6.75
2017-09-16T11:24:51.758Z,6.73
2017-09-16T11:27:33.280Z,6.00
2017-09-16T11:30:05.126Z,6.80
2017-09-16T11:32:38.624Z,6.85
2017-09-16T11:35:09.508Z,6.20
2017-09-16T11:37:38.066Z,6.78
2017-09-16T11:40:09.031Z,6.57
2017-09-16T11:42:39.415Z,6.93
2017-09-16T11:45:08.571Z,6.30
2017-09-16T11:47:38.835Z,6.10
2017-09-16T11:50:23.638Z,6.47
2017-09-16T11:58:16.923Z,6.50
2017-09-16T12:00:45.456Z,6.47
2017-09-16T12:03:26.054Z,5.43
2017-09-16T12:06:26.346Z,7.30
2017-09-16T12:08:55.800Z,6.95
2017-09-16T12:11:24.317Z,6.45
2017-09-16T12:13:52.707Z,6.70
2017-09-16T12:16:21.090Z,6.40
2017-09-16T12:18:49.426Z,6.40
2017-09-16T12:21:17.840Z,6.68
2017-09-16T12:23:46.643Z,6.85
2017-09-16T12:26:16.885Z,6.40
2017-09-16T12:28:45.493Z,6.50
2017-09-16T12:31:17.878Z,6.07
2017-09-16T12:33:48.502Z,7.15
2017-09-16T12:39:18.907Z,6.22
2017-09-16T13:32:22.829Z,6.55
2017-09-16T13:38:07.893Z,7.12
2017-09-16T13:40:37.083Z,6.62
2017-09-16T13:43:05.400Z,7.20
2017-09-16T13:45:33.828Z,7.12
2017-09-16T13:48:04.807Z,7.18
2017-09-16T13:50:36.023Z,7.28
2017-09-16T13:53:05.069Z,7.00
2017-09-16T13:55:34.278Z,7.72
2017-09-16T13:58:02.623Z,7.10
2017-09-16T14:00:30.956Z,6.18
2017-09-16T14:02:59.287Z,6.57
2017-09-16T14:05:27.594Z,7.78
2017-09-16T14:07:57.124Z,8.18
2017-09-16T14:10:26.433Z,7.55
2017-09-16T14:12:54.741Z,6.60
2017-09-16T14:15:23.085Z,6.57
2017-09-16T14:17:51.328Z,7.50
2017-09-16T14:20:20.734Z,7.30
2017-09-16T14:22:50.689Z,7.47
2017-09-16T14:25:18.978Z,7.10
2017-09-16T14:27:47.303Z,7.35
2017-09-16T14:30:16.386Z,6.65
2017-09-16T14:32:44.763Z,7.85
2017-09-16T14:35:15.490Z,7.80
2017-09-16T14:37:43.826Z,7.53
2017-09-16T14:40:12.240Z,6.50
2017-09-16T14:42:40.477Z,6.70
2017-09-16T14:45:08.746Z,6.47
2017-09-16T14:47:38.226Z,7.22
2017-09-16T14:50:11.661Z,7.15
2017-09-16T14:52:40.890Z,6.90
2017-09-16T14:55:10.654Z,7.37
2017-09-16T14:58:07.556Z,7.53
2017-09-16T15:00:45.667Z,7.60
2017-09-16T15:09:09.955Z,6.53
2017-09-16T15:14:45.122Z,7.45
2017-09-16T15:17:13.490Z,7.50
2017-09-16T15:19:41.948Z,7.22
2017-09-16T15:22:11.121Z,6.72
2017-09-16T15:24:43.467Z,6.95
2017-09-16T15:27:12.760Z,8.93
2017-09-16T15:29:44.876Z,7.45
2017-09-16T15:32:38.867Z,7.53
2017-09-16T15:35:07.972Z,7.10
2017-09-16T15:37:40.865Z,6.90
2017-09-16T15:40:09.100Z,6.82
2017-09-16T15:42:57.361Z,7.00
2017-09-16T15:45:30.268Z,7.28
2017-09-16T15:48:07.466Z,7.40
2017-09-16T15:54:33.876Z,7.37
2017-09-16T15:57:02.900Z,7.20
2017-09-16T15:59:32.280Z,7.00
2017-09-16T16:02:14.068Z,7.12
2017-09-16T16:04:42.386Z,7.25
2017-09-16T16:07:12.282Z,6.95
2017-09-16T16:09:40.678Z,7.20
2017-09-16T16:12:09.130Z,6.90
2017-09-16T16:14:38.266Z,7.60
2017-09-16T16:17:07.463Z,7.18
2017-09-16T16:19:35.766Z,6.47
2017-09-16T16:22:04.061Z,6.62
2017-09-16T16:24:32.298Z,7.72
2017-09-16T16:27:01.272Z,7.40
2017-09-16T16:29:29.616Z,7.20
2017-09-16T16:31:57.848Z,7.37
2017-09-16T16:34:27.113Z,7.72
2017-09-16T16:36:56.624Z,7.97
2017-09-16T16:39:25.581Z,8.10
2017-09-16T16:41:53.989Z,8.13
2017-09-16T16:44:22.275Z,7.35
2017-09-16T16:46:52.961Z,8.10
2017-09-16T16:49:21.233Z,7.45
2017-09-16T16:51:49.920Z,7.50
2017-09-16T16:54:18.253Z,7.32
2017-09-16T16:56:46.575Z,7.22
2017-09-16T16:59:16.463Z,7.43
2017-09-16T17:01:44.853Z,6.70
2017-09-16T17:04:13.842Z,6.80
2017-09-16T17:06:42.125Z,6.68
2017-09-16T17:09:11.401Z,6.50
2017-09-16T17:11:39.723Z,6.57
2017-09-16T17:14:09.545Z,6.60
2017-09-16T17:16:37.835Z,5.97
2017-09-16T17:19:07.603Z,6.15
2017-09-16T17:21:36.768Z,5.85
2017-09-16T17:24:05.149Z,6.05
2017-09-16T17:26:33.434Z,5.60
2017-09-16T17:29:01.768Z,6.20
2017-09-16T17:31:30.338Z,6.15
2017-09-16T17:33:58.617Z,6.15
2017-09-16T17:36:26.880Z,6.10
2017-09-16T17:38:55.107Z,5.90
2017-09-16T17:41:27.099Z,6.43
2017-09-16T17:43:55.467Z,5.97
2017-09-16T17:46:24.234Z,6.30
2017-09-16T17:48:52.604Z,6.10
2017-09-16T17:51:21.763Z,6.07
2017-09-16T17:53:50.563Z,5.60
2017-09-16T17:56:19.315Z,5.85
2017-09-16T17:58:47.629Z,5.62
2017-09-16T18:01:15.960Z,5.25
2017-09-16T18:03:45.500Z,5.57
2017-09-16T18:06:14.794Z,5.28
2017-09-16T18:08:43.107Z,5.10
2017-09-16T18:11:11.467Z,5.90
2017-09-16T18:16:15.154Z,5.65
2017-09-16T18:18:43.492Z,5.60
2017-09-16T18:21:12.679Z,5.45
2017-09-16T18:23:42.352Z,6.22
2017-09-16T18:26:11.575Z,5.93
2017-09-16T18:28:41.389Z,5.90
2017-09-16T18:31:10.460Z,5.85
2017-09-16T18:33:38.725Z,5.70
2017-09-16T18:36:25.002Z,5.68
2017-09-16T18:38:54.194Z,5.90
2017-09-16T18:41:23.322Z,5.62
2017-09-16T18:43:52.651Z,5.25
2017-09-16T18:46:21.897Z,5.47
2017-09-16T18:48:50.976Z,6.00
2017-09-16T18:51:22.390Z,5.18
2017-09-16T18:53:54.170Z,5.50
2017-09-16T18:56:22.527Z,5.35
2017-09-16T18:59:01.149Z,5.70
2017-09-16T19:01:39.102Z,5.72
2017-09-16T19:13:40.823Z,6.47
2017-09-16T19:16:20.903Z,7.00
2017-09-16T19:19:07.964Z,7.28
2017-09-16T19:22:07.421Z,7.30
2017-09-16T19:24:39.022Z,6.40
2017-09-16T20:14:29.067Z,7.28
2017-09-16T20:17:21.386Z,6.00
2017-09-16T22:26:39.368Z,14.57
2017-09-16T22:29:07.827Z,14.55
2017-09-16T22:31:43.312Z,14.10
2017-09-16T22:34:15.254Z,14.32
2017-09-16T22:36:44.415Z,14.77
2017-09-16T22:39:14.177Z,14.10
2017-09-16T22:41:43.325Z,13.85
2017-09-16T22:44:30.823Z,15.18
2017-09-16T22:46:59.172Z,15.43
2017-09-16T22:49:27.494Z,15.45
2017-09-16T22:51:56.597Z,15.40
2017-09-16T22:54:25.668Z,15.02
2017-09-16T22:56:57.843Z,15.10
2017-09-16T22:59:26.119Z,14.32
2017-09-16T23:01:55.209Z,15.02
2017-09-16T23:04:23.448Z,15.55
2017-09-16T23:06:52.765Z,14.87
2017-09-16T23:09:22.198Z,14.07
2017-09-16T23:11:50.552Z,14.57
2017-09-16T23:14:19.636Z,14.98
2017-09-16T23:16:47.968Z,14.57
2017-09-16T23:19:16.282Z,13.93
2017-09-16T23:21:44.672Z,14.15
2017-09-16T23:24:13.411Z,15.13
2017-09-16T23:26:41.743Z,13.98
2017-09-16T23:29:10.821Z,14.43
2017-09-16T23:31:39.124Z,13.55
2017-09-16T23:34:08.460Z,13.48
2017-09-16T23:36:38.238Z,13.30
2017-09-16T23:39:08.073Z,14.30
2017-09-16T23:41:36.512Z,12.55
2017-09-16T23:44:04.886Z,12.50
2017-09-16T23:46:33.381Z,12.50
2017-09-16T23:49:02.462Z,12.73
2017-09-16T23:51:30.846Z,12.20
2017-09-16T23:53:59.228Z,12.90
2017-09-16T23:56:27.604Z,12.07
2017-09-16T23:58:57.629Z,13.57
